Time;durP1;ratioP1;P1;durP2;ratioP2;P2;SDS_P1;SDS_P2;PMS_P1;PMS_P2;Temp;Humidity;BMP_temperature;BMP_pressure;BME280_temperature;BME280_humidity;BME280_pressure;Samples;Min_cycle;Max_cycle;Signal;HPM_P1;HPM_P2
2022/11/09 01:05:23;;;;;;;;;;;;;;;;;;;;;
2022/11/09 01:13:24;;;;;;;54.47;20.60;;;;;;;7.75;82.83;99555.78;4854641;29;20099;-92
2022/11/09 01:16:24;;;;;;;50.67;19.27;;;;;;;7.56;82.82;99525.78;4839314;29;20053;-91
2022/11/09 01:32:17;;;;;;;55.13;21.05;;;;;;;7.95;82.52;99560.19;5050570;23;20053;-92
2022/11/09 01:40:08;;;;;;;55.42;20.13;;;;;;;8.03;82.67;99584.06;4919693;29;20151;-91
2022/11/09 01:43:30;;;;;;;51.72;19.65;;;;;;;8.14;82.98;99595.63;4937870;29;20103;-92
2022/11/09 01:49:40;;;;;;;59.30;20.35;;;;;;;8.13;82.96;99600.28;916091;22;20330;-91
2022/11/09 02:01:10;;;;;;;;;;;;;;;;;;;;;
2022/11/09 02:04:13;;;;;;;52.92;21.27;;;;;;;7.93;82.97;99548.78;4835365;29;20121;-94
2022/11/09 02:06:52;;;;;;;65.50;23.40;;;;;;;7.94;83.01;99553.13;4832960;29;20523;-92
2022/11/09 02:09:55;;;;;;;60.97;22.55;;;;;;;8.02;82.70;99573.47;4828722;29;20046;-94
2022/11/09 02:12:54;;;;;;;60.72;22.75;;;;;;;8.07;82.93;99587.81;4813969;29;20060;-93
2022/11/09 02:16:16;;;;;;;71.28;24.63;;;;;;;7.73;82.95;99530.78;4831071;29;20045;-94
2022/11/09 02:19:31;;;;;;;58.72;21.83;;;;;;;8.02;82.84;99576.19;4846452;29;20052;-92
2022/11/09 02:22:04;;;;;;;63.42;21.55;;;;;;;7.80;82.98;99542.13;4832116;29;20042;-93
2022/11/09 02:24:48;;;;;;;;;;;;;;;;;;;;;
2022/11/09 02:38:37;;;;;;;;;;;;;;;;;;;;;
2022/11/09 03:13:22;;;;;;;44.65;17.58;;;;;;;8.29;84.35;99619.97;4708651;23;20296;-91
2022/11/09 03:16:35;;;;;;;;;;;;;;;;;;;;;
2022/11/09 03:19:35;;;;;;;49.20;17.67;;;;;;;8.09;84.26;99591.06;4947658;29;20051;-94
2022/11/09 03:22:34;;;;;;;54.83;18.25;;;;;;;8.30;84.09;99623.50;4937263;29;20090;-92
2022/11/09 03:25:27;;;;;;;46.17;18.65;;;;;;;7.84;84.28;99534.19;4934080;29;20530;-90
2022/11/09 03:45:23;;;;;;;39.28;14.88;;;;;;;8.19;84.59;99611.94;4983246;28;20055;-94
2022/11/09 03:52:31;;;;;;;;;;;;;;;;;;;;;
2022/11/09 03:56:01;;;;;;;;;;;;;;;;;;;;;
2022/11/09 04:08:47;;;;;;;40.72;17.45;;;;;;;8.45;84.44;99650.63;4952840;28;20089;-91
2022/11/09 04:11:23;;;;;;;45.42;16.98;;;;;;;8.57;84.34;99663.81;4965645;28;20047;-90
2022/11/09 04:13:55;;;;;;;45.53;17.85;;;;;;;8.25;84.15;99608.06;4989069;28;20086;-95
2022/11/09 04:16:28;;;;;;;39.10;17.45;;;;;;;8.56;84.48;99660.28;4958465;29;20055;-93
2022/11/09 04:18:56;;;;;;;42.10;17.27;;;;;;;8.34;84.18;99606.28;4939284;29;20153;-93
2022/11/09 04:21:36;;;;;;;;;;;;;;;;;;;;;
2022/11/09 04:24:41;;;;;;;42.38;17.55;;;;;;;8.23;83.78;99580.28;4975710;28;20051;-93
2022/11/09 04:27:10;;;;;;;40.10;16.55;;;;;;;8.53;83.64;99636.34;4960588;29;20051;-94
2022/11/09 04:29:52;;;;;;;35.80;16.40;;;;;;;8.76;83.71;99667.38;4937327;29;20058;-92
2022/11/09 04:32:18;;;;;;;37.75;16.20;;;;;;;8.64;83.67;99637.84;4905870;29;20044;-95
2022/11/09 04:34:47;;;;;;;36.63;16.40;;;;;;;8.58;83.20;99635.47;4909931;29;20048;-92
2022/11/09 04:37:13;;;;;;;42.53;16.92;;;;;;;8.42;82.97;99588.53;4912015;29;20036;-93
2022/11/09 04:40:02;;;;;;;36.60;16.52;;;;;;;8.45;83.00;99601.56;4960367;23;20555;-92
2022/11/09 04:42:29;;;;;;;38.47;16.40;;;;;;;8.56;83.32;99619.41;4925349;29;20023;-94
2022/11/09 04:44:56;;;;;;;33.70;15.82;;;;;;;8.63;83.20;99635.41;4936717;29;20142;-91
2022/11/09 04:47:22;;;;;;;38.53;17.38;;;;;;;8.37;83.35;99592.09;4912235;29;20067;-92
2022/11/09 04:49:48;;;;;;;40.27;15.97;;;;;;;8.66;83.38;99630.16;4942772;29;20071;-91
2022/11/09 04:52:40;;;;;;;40.70;16.63;;;;;;;8.84;83.37;99666.75;4948709;29;20144;-92
2022/11/09 04:55:08;;;;;;;38.63;16.55;;;;;;;8.66;83.42;99645.72;4930662;29;20070;-93
2022/11/09 04:57:35;;;;;;;32.63;16.17;;;;;;;8.29;83.36;99581.84;4913412;29;20047;-93
2022/11/09 05:00:01;;;;;;;41.67;16.83;;;;;;;8.62;83.57;99634.59;4916522;29;20085;-94
2022/11/09 05:02:32;;;;;;;40.13;16.77;;;;;;;8.57;83.35;99625.66;4950576;29;20294;-93
2022/11/09 05:04:58;;;;;;;38.13;16.00;;;;;;;8.68;83.51;99640.78;4951407;29;20619;-93
2022/11/09 05:07:27;;;;;;;40.27;16.50;;;;;;;8.65;83.42;99644.91;4951948;29;20050;-93
2022/11/09 05:09:54;;;;;;;44.17;16.88;;;;;;;8.74;83.58;99647.81;4918972;29;20055;-93
2022/11/09 05:12:46;;;;;;;49.40;17.27;;;;;;;8.94;83.39;99680.25;4918428;28;20029;-93
2022/11/09 05:15:12;;;;;;;39.38;16.33;;;;;;;8.70;83.39;99644.81;4912626;29;20047;-94
2022/11/09 05:17:38;;;;;;;35.97;16.05;;;;;;;8.29;83.46;99581.03;4966761;28;20044;-93
2022/11/09 05:20:05;;;;;;;37.95;17.55;;;;;;;8.77;83.74;99655.38;4956553;28;20031;-94
2022/11/09 05:25:26;;;;;;;44.63;16.92;;;;;;;8.60;83.60;99635.97;4942917;29;20035;-94
2022/11/09 05:28:12;;;;;;;50.38;16.73;;;;;;;8.69;83.49;99635.03;4937522;29;20047;-92
2022/11/09 05:30:41;;;;;;;;;;;;;;;9.01;83.24;99676.34;4936291;29;20051;-90
2022/11/09 05:33:10;;;;;;;34.80;14.75;;;;;;;8.88;83.02;99665.06;4956964;29;19902;-93
2022/11/09 05:35:40;;;;;;;31.67;14.98;;;;;;;8.69;83.18;99628.78;4939764;29;20046;-92
2022/11/09 05:38:07;;;;;;;38.38;16.88;;;;;;;8.90;82.78;99664.75;4955777;29;20046;-90
2022/11/09 05:40:37;;;;;;;31.35;15.25;;;;;;;8.66;82.44;99624.72;4952381;29;20059;-93
2022/11/09 05:43:03;;;;;;;35.53;15.82;;;;;;;8.63;82.71;99621.78;4959223;28;20067;-93
2022/11/09 05:45:52;;;;;;;35.97;16.17;;;;;;;8.77;82.86;99647.19;4931268;29;20163;-95
2022/11/09 05:48:42;;;;;;;35.00;15.30;;;;;;;9.09;82.93;99703.75;4939660;29;20205;-95
2022/11/09 05:51:21;;;;;;;36.58;14.85;;;;;;;8.83;82.58;99651.47;4943216;29;20091;-93
2022/11/09 05:54:06;;;;;;;29.52;14.38;;;;;;;8.76;82.58;99629.22;4925745;29;20107;-95
2022/11/09 05:56:47;;;;;;;32.67;15.63;;;;;;;8.84;82.40;99627.75;4951713;29;20112;-92
2022/11/09 05:59:15;;;;;;;29.80;14.05;;;;;;;9.06;82.28;99649.81;4951592;29;20075;-92
2022/11/09 06:01:43;;;;;;;30.55;13.60;;;;;;;9.13;82.10;99652.16;4937728;29;20048;-94
2022/11/09 06:04:13;;;;;;;34.85;15.25;;;;;;;9.26;81.90;99654.16;4908918;29;20142;-94
2022/11/09 06:06:41;;;;;;;30.98;13.30;;;;;;;9.16;81.71;99649.66;4846842;29;20055;-92
2022/11/09 06:09:08;;;;;;;39.85;15.48;;;;;;;9.13;81.76;99650.25;4926976;29;20051;-93
2022/11/09 06:11:34;;;;;;;38.88;14.13;;;;;;;9.09;81.77;99621.13;4952902;29;20139;-94
2022/11/09 06:14:01;;;;;;;34.35;14.70;;;;;;;9.36;81.51;99672.28;4957477;23;20057;-93
2022/11/09 06:16:33;;;;;;;33.03;14.60;;;;;;;9.04;81.49;99624.75;4954674;28;20133;-94
2022/11/09 06:19:26;;;;;;;31.88;14.73;;;;;;;9.51;81.56;99699.34;4954352;29;20055;-91
2022/11/09 06:23:01;;;;;;;33.72;14.68;;;;;;;9.50;81.74;99697.72;4954659;29;20053;-93
2022/11/09 06:26:24;;;;;;;29.83;14.48;;;;;;;9.49;81.53;99701.56;4924691;29;20043;-95
2022/11/09 06:32:18;;;;;;;34.63;14.05;;;;;;;8.96;81.95;99630.06;4929368;29;20070;-92
2022/11/09 06:35:13;;;;;;;34.58;14.75;;;;;;;9.51;81.79;99707.53;4942813;22;20021;-90
2022/11/09 06:38:41;;;;;;;30.90;14.45;;;;;;;9.59;81.71;99711.50;4971872;28;20057;-92
2022/11/09 06:41:12;;;;;;;29.70;14.48;;;;;;;9.17;81.69;99655.91;4942047;29;20142;-92
2022/11/09 06:43:52;;;;;;;32.88;15.52;;;;;;;9.08;81.34;99647.59;4945734;23;20058;-93
2022/11/09 06:47:21;;;;;;;31.17;14.98;;;;;;;9.58;82.04;99723.53;4951554;28;20098;-96
2022/11/09 06:49:48;;;;;;;31.55;15.50;;;;;;;9.32;81.58;99680.25;4948227;28;20038;-90
2022/11/09 06:52:24;;;;;;;37.03;15.63;;;;;;;9.37;81.78;99685.66;4947975;28;20041;-91
2022/11/09 06:55:34;;;;;;;31.77;14.65;;;;;;;9.16;82.00;99655.09;4956635;23;20102;-91
2022/11/09 06:58:19;;;;;;;38.30;15.38;;;;;;;9.41;81.77;99691.31;4962276;29;20054;-91
2022/11/09 07:01:18;;;;;;;30.73;13.48;;;;;;;9.71;81.85;99732.91;4958271;28;20106;-89
2022/11/09 07:03:56;;;;;;;30.27;14.73;;;;;;;9.44;81.64;99687.16;4956593;29;20138;-91
2022/11/09 07:06:26;;;;;;;35.30;13.88;;;;;;;9.73;81.52;99731.47;4958250;29;20110;-88
2022/11/09 07:08:56;;;;;;;30.70;14.23;;;;;;;9.51;81.67;99696.63;4959407;28;20133;-87
2022/11/09 07:11:22;;;;;;;36.13;15.05;;;;;;;9.56;81.79;99720.28;4941298;29;20039;-91
2022/11/09 07:13:48;;;;;;;31.88;14.55;;;;;;;9.48;81.69;99708.13;4960702;29;20447;-89
2022/11/09 07:16:16;;;;;;;29.50;14.32;;;;;;;9.32;81.97;99672.06;4952230;28;20057;-89
2022/11/09 07:18:45;;;;;;;31.00;14.05;;;;;;;9.43;81.58;99678.19;4958384;29;20090;-95
2022/11/09 07:21:11;;;;;;;34.17;14.63;;;;;;;9.51;81.72;99710.25;4926614;29;20050;-89
2022/11/09 07:23:38;;;;;;;29.87;13.27;;;;;;;9.52;81.99;99698.22;4937925;29;20126;-91
2022/11/09 07:26:04;;;;;;;27.67;13.23;;;;;;;9.29;82.00;99669.94;4943348;29;20342;-92
2022/11/09 07:28:58;;;;;;;31.30;13.45;;;;;;;9.29;81.91;99674.56;4927081;29;20066;-91
2022/11/09 07:31:28;;;;;;;26.10;13.18;;;;;;;9.83;81.65;99722.31;4921537;29;20056;-89
2022/11/09 07:34:29;;;;;;;27.40;11.80;;;;;;;9.79;81.62;99700.25;4938922;29;20055;-91
2022/11/09 07:36:56;;;;;;;29.70;13.20;;;;;;;9.99;80.60;99718.22;4905521;29;20189;-90
2022/11/09 07:39:22;;;;;;;28.20;13.20;;;;;;;10.10;79.92;99733.34;4901090;29;20545;-92
2022/11/09 07:41:48;;;;;;;31.02;13.75;;;;;;;9.79;80.07;99705.72;4913050;29;20280;-92
2022/11/09 07:44:17;;;;;;;32.53;15.27;;;;;;;9.93;80.38;99741.25;4935524;22;20371;-88
2022/11/09 07:46:47;;;;;;;31.58;14.88;;;;;;;9.63;80.44;99705.16;4923544;29;20055;-91
2022/11/09 07:50:07;;;;;;;32.25;15.38;;;;;;;10.14;80.54;99773.72;4978122;23;20128;-91
2022/11/09 07:52:34;;;;;;;34.05;15.68;;;;;;;9.81;80.69;99735.47;4946562;28;20039;-89
2022/11/09 07:55:00;;;;;;;35.97;17.03;;;;;;;9.71;80.62;99708.34;4981693;28;20038;-90
2022/11/09 07:57:27;;;;;;;42.53;15.90;;;;;;;9.61;80.72;99701.91;4985063;28;20041;-91
2022/11/09 07:59:58;;;;;;;34.45;14.75;;;;;;;9.93;80.76;99754.09;4935622;29;20113;-95
2022/11/09 08:02:25;;;;;;;37.80;13.98;;;;;;;9.76;80.99;99736.34;4968310;28;20042;-92
2022/11/09 08:04:57;;;;;;;37.42;14.88;;;;;;;9.75;80.93;99737.47;4947574;28;20053;-90
2022/11/09 08:07:54;;;;;;;33.65;15.75;;;;;;;9.99;81.15;99781.03;4950551;23;20062;-94
2022/11/09 08:10:39;;;;;;;32.70;14.30;;;;;;;9.49;81.39;99715.19;4944192;29;20486;-94
2022/11/09 08:13:31;;;;;;;35.95;15.07;;;;;;;9.95;81.64;99782.75;4922438;29;20047;-94
2022/11/09 08:19:01;;;;;;;38.15;15.55;;;;;;;9.81;81.26;99738.19;4967114;28;20044;-92
2022/11/09 08:21:27;;;;;;;41.33;15.93;;;;;;;9.72;81.24;99716.22;4959945;23;20050;-91
2022/11/09 08:23:53;;;;;;;36.75;14.68;;;;;;;9.62;81.15;99711.72;4953204;28;20031;-92
2022/11/09 08:26:20;;;;;;;38.53;15.95;;;;;;;9.58;81.29;99709.91;4928956;28;20037;-94
2022/11/09 08:29:02;;;;;;;34.17;15.00;;;;;;;9.59;81.62;99715.03;4943598;28;20046;-94
2022/11/09 08:31:28;;;;;;;36.55;15.43;;;;;;;9.81;81.59;99749.94;4953219;28;20043;-91
2022/11/09 08:33:57;;;;;;;38.75;16.02;;;;;;;9.88;82.06;99764.00;4942996;28;20524;-89
2022/11/09 08:36:35;;;;;;;37.67;15.48;;;;;;;9.96;81.87;99758.97;4934783;28;20097;-95
2022/11/09 08:39:09;;;;;;;41.22;17.48;;;;;;;9.85;82.05;99729.09;4924171;28;20086;-91
2022/11/09 08:41:43;;;;;;;38.72;17.30;;;;;;;10.19;81.96;99779.91;4936799;28;20103;-92
2022/11/09 08:47:29;;;;;;;;;;;;;;;;;;;;;
2022/11/09 08:50:37;;;;;;;34.78;14.75;;;;;;;9.89;82.03;99730.13;4978190;28;20061;-90
2022/11/09 08:53:06;;;;;;;35.65;16.02;;;;;;;9.95;82.13;99735.50;4946715;28;20039;-91
2022/11/09 08:56:06;;;;;;;32.53;13.73;;;;;;;10.13;82.10;99770.16;4981148;28;20122;-93
2022/11/09 08:59:52;;;;;;;31.90;13.25;;;;;;;9.73;82.19;99706.91;5005196;28;20137;-93
2022/11/09 09:09:04;;;;;;;28.35;12.90;;;;;;;10.29;81.80;99768.81;5104355;23;20433;-95
2022/11/09 09:15:45;;;;;;;29.73;12.77;;;;;;;10.40;81.30;99772.22;4936033;29;20142;-93
2022/11/09 09:18:15;;;;;;;26.65;11.90;;;;;;;10.08;81.14;99729.28;4878585;29;20040;-93
2022/11/09 09:20:42;;;;;;;24.83;12.00;;;;;;;10.15;80.99;99740.63;4901731;29;20048;-92
2022/11/09 09:23:36;;;;;;;25.73;12.30;;;;;;;10.23;81.30;99769.19;4947872;23;20059;-91
2022/11/09 09:26:25;;;;;;;24.70;12.10;;;;;;;9.96;81.60;99729.75;4920374;29;20044;-93
2022/11/09 09:32:59;;;;;;;22.52;11.00;;;;;;;10.30;81.50;99737.66;4937672;29;20040;-94
2022/11/09 09:35:27;;;;;;;29.42;13.80;;;;;;;10.31;80.35;99733.81;4940775;29;20040;-92
2022/11/09 09:38:08;;;;;;;27.85;12.85;;;;;;;10.30;80.45;99747.78;4905019;29;20055;-87
2022/11/09 09:41:05;;;;;;;32.65;13.95;;;;;;;9.93;80.88;99718.59;4914447;29;20115;-91
2022/11/09 09:43:44;;;;;;;27.67;12.95;;;;;;;10.28;81.22;99750.81;4903924;22;20061;-92
2022/11/09 09:50:05;;;;;;;30.20;13.77;;;;;;;10.25;81.19;99759.56;5006397;23;20050;-92
2022/11/09 09:52:50;;;;;;;33.97;14.40;;;;;;;9.88;81.34;99711.31;5001796;28;20046;-94
2022/11/09 09:55:25;;;;;;;36.97;15.15;;;;;;;9.79;81.57;99685.78;4937734;28;20042;-93
2022/11/09 09:58:07;;;;;;;33.95;15.00;;;;;;;10.04;81.92;99722.81;4987927;28;20050;-93
2022/11/09 10:00:37;;;;;;;36.90;16.27;;;;;;;10.39;81.72;99780.69;4989190;28;20046;-88
2022/11/09 10:03:08;;;;;;;36.05;16.98;;;;;;;9.95;81.43;99687.16;4945889;28;20043;-89
2022/11/09 10:05:57;;;;;;;37.72;16.30;;;;;;;9.93;81.62;99713.16;4954787;28;20043;-89
2022/11/09 10:08:45;;;;;;;39.53;17.02;;;;;;;9.93;81.83;99708.50;4940793;23;20040;-91
2022/11/09 10:11:24;;;;;;;40.33;16.75;;;;;;;10.20;82.21;99778.81;4916852;29;20063;-91
2022/11/09 10:14:19;;;;;;;39.92;16.23;;;;;;;9.70;82.81;99703.97;4935992;29;20051;-93
2022/11/09 10:17:38;;;;;;;39.08;16.50;;;;;;;10.26;82.43;99774.06;4940627;29;20048;-89
2022/11/09 10:20:26;;;;;;;40.78;18.60;;;;;;;10.27;82.61;99773.78;4937403;29;20040;-88
2022/11/09 10:23:29;;;;;;;;;;;;;;;10.28;82.43;99772.66;4896713;29;20048;-87
2022/11/09 10:26:03;;;;;;;40.40;17.20;;;;;;;9.79;82.38;99708.44;4919252;23;19935;-87
2022/11/09 10:28:32;;;;;;;39.30;17.02;;;;;;;9.91;82.74;99727.13;4931066;29;20051;-89
2022/11/09 10:31:20;;;;;;;38.83;16.25;;;;;;;10.18;82.92;99761.88;4929601;29;20042;-91
2022/11/09 10:34:00;;;;;;;47.17;18.08;;;;;;;9.92;83.17;99715.06;4959955;29;20486;-90
2022/11/09 10:36:52;;;;;;;37.78;15.75;;;;;;;10.14;82.46;99738.22;4932155;29;20129;-91
2022/11/09 10:39:39;;;;;;;37.45;16.90;;;;;;;10.42;82.44;99760.97;4963221;29;20573;-93
2022/11/09 10:43:03;;;;;;;44.13;16.92;;;;;;;10.34;82.23;99757.00;4933220;29;20469;-89
2022/11/09 10:46:13;;;;;;;41.90;16.25;;;;;;;10.12;82.42;99722.91;4955276;29;20046;-93
2022/11/09 10:49:23;;;;;;;38.90;15.60;;;;;;;10.17;82.28;99732.16;4959049;29;20661;-93
2022/11/09 10:52:44;;;;;;;40.78;16.85;;;;;;;10.10;82.11;99716.16;4941649;29;20058;-88
2022/11/09 10:55:31;;;;;;;36.60;16.27;;;;;;;9.95;82.75;99700.81;4968949;23;20197;-89
2022/11/09 10:58:27;;;;;;;45.25;17.08;;;;;;;10.11;82.86;99725.97;4983486;22;20496;-90
2022/11/09 11:01:13;;;;;;;35.53;15.23;;;;;;;10.24;82.88;99760.69;4949591;28;20050;-91
2022/11/09 11:04:32;;;;;;;36.90;17.10;;;;;;;9.83;82.91;99695.84;4988273;28;20050;-88
2022/11/09 11:07:21;;;;;;;35.35;16.30;;;;;;;10.29;82.78;99757.88;4970296;28;20035;-94
2022/11/09 11:10:15;;;;;;;35.05;15.18;;;;;;;10.30;83.00;99766.91;4962091;28;20142;-89
2022/11/09 11:13:20;;;;;;;37.53;15.15;;;;;;;10.04;82.98;99733.72;4943432;28;20696;-92
2022/11/09 11:16:39;;;;;;;38.35;17.50;;;;;;;10.24;83.21;99770.81;4941078;29;20043;-91
2022/11/09 11:19:49;;;;;;;41.30;17.35;;;;;;;10.06;83.19;99745.97;4957734;29;20112;-92
2022/11/09 11:26:19;;;;;;;38.30;16.83;;;;;;;10.35;82.78;99767.63;4982812;28;20054;-91
2022/11/09 11:29:45;;;;;;;32.53;15.80;;;;;;;9.90;83.01;99703.66;4992624;22;20050;-91
2022/11/09 11:33:15;;;;;;;35.13;16.65;;;;;;;9.96;83.19;99709.81;4974782;28;20077;-91
2022/11/09 11:36:48;;;;;;;40.80;16.80;;;;;;;10.30;83.27;99754.06;4939596;28;20099;-89
2022/11/09 11:40:09;;;;;;;38.17;16.00;;;;;;;10.33;83.38;99766.28;4965115;28;20055;-88
2022/11/09 11:43:47;;;;;;;36.55;16.08;;;;;;;10.11;83.57;99751.34;4957244;28;20050;-92
2022/11/09 11:47:02;;;;;;;34.47;16.57;;;;;;;9.73;83.95;99698.72;4979095;22;20062;-90
2022/11/09 11:50:38;;;;;;;35.80;16.90;;;;;;;10.32;84.00;99761.94;4944980;29;20299;-93
2022/11/09 11:54:28;;;;;;;36.92;16.73;;;;;;;10.03;83.72;99726.63;4955791;29;20539;-91
2022/11/09 12:01:10;;;;;;;34.75;14.85;;;;;;;10.22;84.55;99770.28;4998820;23;20055;-93
2022/11/09 12:04:37;;;;;;;33.58;15.13;;;;;;;10.14;84.76;99771.00;5025377;22;20059;-95
2022/11/09 12:07:53;;;;;;;30.05;14.05;;;;;;;10.14;85.14;99771.81;5006593;28;20081;-88
2022/11/09 12:11:19;;;;;;;37.22;16.52;;;;;;;10.07;85.06;99760.44;4955737;28;20095;-94
2022/11/09 12:14:39;;;;;;;39.83;16.63;;;;;;;10.21;85.14;99768.69;4979116;28;20530;-91
2022/11/09 12:18:18;;;;;;;36.38;15.35;;;;;;;9.80;84.85;99706.53;4914811;29;20056;-96
2022/11/09 12:21:57;;;;;;;31.13;15.88;;;;;;;9.79;84.80;99696.72;4959328;22;20064;-93
2022/11/09 12:24:51;;;;;;;28.45;14.32;;;;;;;10.25;84.79;99762.31;4937074;29;20100;-95
2022/11/09 12:28:13;;;;;;;32.60;14.70;;;;;;;10.32;84.72;99770.16;4927679;29;20036;-91
2022/11/09 12:31:28;;;;;;;29.08;14.27;;;;;;;10.06;84.34;99718.63;4935561;29;20429;-96
2022/11/09 12:34:37;;;;;;;26.95;13.43;;;;;;;9.87;84.55;99701.50;4923251;29;20047;-94
2022/11/09 12:37:34;;;;;;;34.13;16.25;;;;;;;9.84;84.42;99696.66;4932324;29;20056;-94
2022/11/09 12:40:38;;;;;;;28.80;13.63;;;;;;;10.30;84.26;99773.19;4950685;29;20049;-94
2022/11/09 12:44:06;;;;;;;25.70;13.05;;;;;;;10.09;84.34;99737.16;4948023;29;20043;-94
2022/11/09 12:47:19;;;;;;;27.48;12.65;;;;;;;10.35;84.07;99777.75;4943104;29;20050;-93
2022/11/09 12:50:11;;;;;;;34.95;12.77;;;;;;;10.09;84.05;99737.16;4946304;29;20055;-92
2022/11/09 12:52:58;;;;;;;27.95;12.20;;;;;;;10.03;83.89;99710.25;4937914;29;20039;-93
2022/11/09 12:55:55;;;;;;;25.40;13.45;;;;;;;10.47;83.83;99772.63;4923733;29;20423;-95
2022/11/09 12:58:41;;;;;;;25.95;13.20;;;;;;;10.03;83.21;99691.13;4925437;29;20165;-93
2022/11/09 13:01:25;;;;;;;27.17;12.90;;;;;;;10.54;83.17;99774.97;4911350;29;20035;-94
2022/11/09 13:04:53;;;;;;;33.88;13.93;;;;;;;10.53;83.18;99776.09;4943627;29;20050;-95
2022/11/09 13:07:49;;;;;;;27.13;13.45;;;;;;;10.39;83.15;99756.91;4921139;29;20059;-93
2022/11/09 13:10:36;;;;;;;25.52;13.40;;;;;;;10.08;82.70;99702.78;4935248;28;20107;-92
2022/11/09 13:13:35;;;;;;;24.40;12.43;;;;;;;10.27;82.57;99730.06;4943766;29;20035;-95
2022/11/09 13:16:37;;;;;;;24.98;12.68;;;;;;;10.38;82.72;99758.03;4941274;29;20202;-94
2022/11/09 13:19:34;;;;;;;34.63;13.75;;;;;;;10.62;82.52;99771.53;4904947;29;20059;-93
2022/11/09 13:23:35;;;;;;;27.00;12.88;;;;;;;10.49;83.01;99775.03;4944710;29;20043;-94
2022/11/09 13:26:49;;;;;;;30.20;13.50;;;;;;;10.53;83.00;99793.28;4920881;29;20040;-89
2022/11/09 13:29:48;;;;;;;23.92;13.60;;;;;;;10.07;82.60;99714.81;4923518;29;20058;-90
2022/11/09 13:32:40;;;;;;;30.83;13.43;;;;;;;10.30;82.53;99750.53;5112905;22;20586;-91
2022/11/09 13:35:54;;;;;;;28.75;14.43;;;;;;;10.57;82.81;99799.78;4967607;28;20058;-91
2022/11/09 13:43:15;;;;;;;27.95;14.50;;;;;;;10.49;82.85;99800.44;4974334;28;20054;-92
2022/11/09 13:46:55;;;;;;;33.80;14.32;;;;;;;10.29;82.96;99768.00;4983603;28;20043;-88
2022/11/09 13:50:27;;;;;;;32.23;14.77;;;;;;;10.52;83.20;99805.31;4967791;28;20054;-93
2022/11/09 13:58:24;;;;;;;29.05;14.45;;;;;;;10.04;83.00;99726.34;5000351;28;20061;-93
2022/11/09 14:01:53;;;;;;;33.05;14.40;;;;;;;10.43;83.24;99817.22;4970488;28;20073;-93
2022/11/09 14:04:43;;;;;;;30.55;15.60;;;;;;;10.17;83.48;99773.13;5004010;28;20047;-91
2022/11/09 14:07:38;;;;;;;38.83;16.80;;;;;;;10.33;83.28;99802.66;4978787;28;20046;-92
2022/11/09 14:10:50;;;;;;;31.85;15.25;;;;;;;10.31;83.25;99795.88;5041989;23;20077;-91
2022/11/09 14:14:30;;;;;;;36.53;16.95;;;;;;;10.46;83.34;99814.75;4980925;28;20046;-91
2022/11/09 14:18:09;;;;;;;51.65;21.17;;;;;;;10.51;83.29;99816.56;4966835;28;20043;-93
2022/11/09 14:21:41;;;;;;;37.17;16.83;;;;;;;10.16;83.43;99772.28;4965031;23;20046;-93
2022/11/09 14:24:37;;;;;;;33.35;16.98;;;;;;;10.43;83.25;99795.38;4974014;22;20366;-95
2022/11/09 14:27:28;;;;;;;38.83;17.65;;;;;;;10.28;82.77;99759.00;4980579;23;20432;-92
2022/11/09 14:30:27;;;;;;;33.25;16.38;;;;;;;10.21;82.63;99747.63;4960183;28;20043;-91
2022/11/09 14:33:38;;;;;;;38.75;16.27;;;;;;;10.56;82.89;99811.00;4973769;28;20175;-91
2022/11/09 14:36:22;;;;;;;33.05;17.05;;;;;;;10.28;82.94;99775.41;4960296;28;20428;-92
2022/11/09 14:39:22;;;;;;;34.55;16.33;;;;;;;10.46;83.29;99809.28;4960719;28;20134;-93
2022/11/09 14:42:32;;;;;;;35.42;16.88;;;;;;;10.48;83.16;99804.31;4974599;28;20039;-92
2022/11/09 14:45:17;;;;;;;33.10;16.45;;;;;;;10.04;83.40;99740.00;4941281;28;20043;-93
2022/11/09 14:48:02;;;;;;;35.78;16.55;;;;;;;10.35;83.14;99780.47;4941728;29;20043;-90
2022/11/09 14:51:02;;;;;;;33.72;15.90;;;;;;;10.51;83.10;99803.69;4953907;29;20043;-90
2022/11/09 14:53:56;;;;;;;34.70;16.13;;;;;;;10.48;83.22;99804.31;4954997;29;20150;-90
2022/11/09 14:56:42;;;;;;;37.13;16.73;;;;;;;10.44;83.08;99814.22;4957868;29;20049;-88
2022/11/09 14:59:31;;;;;;;33.55;16.70;;;;;;;10.55;83.14;99818.38;4969644;28;20047;-91
2022/11/09 15:02:30;;;;;;;37.42;17.92;;;;;;;10.54;82.88;99819.50;4940418;29;20055;-91
2022/11/09 15:05:38;;;;;;;37.45;16.88;;;;;;;10.42;83.29;99799.22;4953273;29;20047;-93
2022/11/09 15:08:23;;;;;;;37.53;16.80;;;;;;;10.35;83.18;99788.69;4953953;29;20050;-91
2022/11/09 15:11:08;;;;;;;37.85;18.15;;;;;;;10.38;82.88;99770.88;4955027;29;20046;-93
2022/11/09 15:13:56;;;;;;;35.60;16.25;;;;;;;10.49;82.96;99791.44;4964792;28;20536;-92
2022/11/09 15:16:41;;;;;;;35.20;17.00;;;;;;;10.43;82.79;99771.59;4971456;28;20504;-89
2022/11/09 15:19:52;;;;;;;39.65;19.15;;;;;;;10.47;82.93;99778.09;4972865;28;20050;-91
2022/11/09 15:23:00;;;;;;;38.17;17.55;;;;;;;10.63;82.85;99805.13;4957159;28;20078;-93
2022/11/09 15:25:54;;;;;;;38.30;17.38;;;;;;;10.40;82.74;99785.03;4428742;28;15362108;-93
2022/11/09 15:29:36;;;;;;;35.72;17.92;;;;;;;10.53;83.06;99815.16;4956978;29;20051;-91
2022/11/09 15:32:29;;;;;;;38.97;17.73;;;;;;;10.54;82.84;99826.91;4943014;29;20146;-93
2022/11/09 15:36:03;;;;;;;38.33;18.38;;;;;;;10.61;82.79;99821.03;4957415;28;20049;-92
2022/11/09 15:39:19;;;;;;;34.60;18.30;;;;;;;10.25;82.82;99777.91;4975522;28;20058;-90
2022/11/09 15:42:04;;;;;;;42.60;19.75;;;;;;;10.62;82.71;99833.59;4979586;28;20038;-90
2022/11/09 15:44:53;;;;;;;36.50;18.10;;;;;;;10.48;82.57;99804.31;4975070;28;20098;-92
2022/11/09 15:48:16;;;;;;;45.05;19.38;;;;;;;10.14;82.76;99758.13;4965370;28;20097;-93
2022/11/09 15:51:04;;;;;;;38.10;18.85;;;;;;;10.51;83.04;99811.09;4957997;28;20115;-95
2022/11/09 15:54:25;;;;;;;43.05;18.52;;;;;;;10.56;82.97;99821.94;4965820;28;20073;-93
2022/11/09 15:57:14;;;;;;;40.95;17.58;;;;;;;10.31;82.80;99779.47;4976743;28;20050;-94
2022/11/09 16:00:23;;;;;;;38.95;18.08;;;;;;;10.41;82.84;99792.16;4969583;28;20079;-92
2022/11/09 16:05:58;;;;;;;38.17;17.98;;;;;;;10.26;82.76;99753.03;3378351;22;20050;-94
2022/11/09 16:12:03;;;;;;;43.15;18.88;;;;;;;10.62;83.05;99822.66;4968208;28;20038;-91
2022/11/09 16:14:50;;;;;;;40.42;19.23;;;;;;;10.62;82.73;99828.13;4963176;28;20042;-90
2022/11/09 16:17:41;;;;;;;40.45;19.77;;;;;;;10.15;83.05;99753.47;4988014;28;20038;-92
2022/11/09 16:20:42;;;;;;;47.92;20.35;;;;;;;10.49;82.89;99808.66;4975366;28;20039;-95
2022/11/09 16:23:57;;;;;;;48.50;18.90;;;;;;;10.44;83.10;99811.50;5055804;22;20059;-93
2022/11/09 16:26:49;;;;;;;40.85;17.42;;;;;;;10.36;82.93;99790.28;5027787;23;20084;-88
2022/11/09 16:29:39;;;;;;;39.22;18.38;;;;;;;10.28;82.75;99764.47;5010474;28;20053;-90
2022/11/09 16:32:46;;;;;;;38.72;19.98;;;;;;;10.52;82.29;99802.59;5026437;28;20091;-91
2022/11/09 16:35:37;;;;;;;38.08;19.67;;;;;;;10.33;82.46;99755.38;4995328;28;20077;-92
2022/11/09 16:38:23;;;;;;;40.15;19.35;;;;;;;10.23;82.12;99741.84;5010751;28;20018;-88
2022/11/09 16:41:11;;;;;;;36.92;18.63;;;;;;;10.66;82.02;99810.84;5030648;28;20034;-93
2022/11/09 16:44:35;;;;;;;35.60;19.67;;;;;;;10.35;81.93;99761.34;5027619;28;20102;-88
2022/11/09 16:47:31;;;;;;;32.80;18.92;;;;;;;10.33;81.38;99739.81;5008302;28;20101;-91
2022/11/09 16:50:17;;;;;;;34.47;16.88;;;;;;;10.57;81.61;99786.09;4987899;28;20100;-94
2022/11/09 16:53:19;;;;;;;33.25;18.50;;;;;;;10.34;81.27;99748.81;5011386;28;20116;-91
2022/11/09 16:56:19;;;;;;;34.93;18.40;;;;;;;10.50;81.21;99773.94;5007935;28;20074;-93
2022/11/09 16:59:11;;;;;;;38.63;18.90;;;;;;;10.77;81.25;99808.72;5021143;28;20216;-93
2022/11/09 17:01:58;;;;;;;30.15;17.45;;;;;;;10.60;81.31;99775.69;5019659;28;20038;-93
2022/11/09 17:04:44;;;;;;;32.67;17.40;;;;;;;10.74;80.99;99792.91;5010547;28;20038;-91
2022/11/09 17:07:39;;;;;;;28.65;17.90;;;;;;;10.49;81.02;99758.63;5000855;28;20068;-93
2022/11/09 17:10:30;;;;;;;33.13;16.90;;;;;;;10.76;80.99;99805.19;5002609;28;20065;-88
2022/11/09 17:13:15;;;;;;;34.33;17.42;;;;;;;10.66;80.53;99778.03;5025337;28;20041;-91
2022/11/09 17:16:11;;;;;;;34.10;17.92;;;;;;;10.62;80.72;99785.19;4988235;28;20137;-92